createdAt,value
2024-03-21T00:00:40.105Z,129.80
2024-03-21T00:01:40.161Z,130.08
2024-03-21T00:02:40.207Z,131.40
2024-03-21T00:03:40.267Z,130.23
2024-03-21T00:04:40.305Z,129.82
2024-03-21T00:05:40.354Z,131.52
2024-03-21T00:06:40.420Z,131.10
2024-03-21T00:07:40.453Z,132.19
2024-03-21T00:08:40.516Z,129.31
2024-03-21T00:09:40.550Z,130.52
2024-03-21T00:10:40.600Z,130.80
2024-03-21T00:11:40.646Z,131.88
2024-03-21T00:12:40.700Z,130.90
2024-03-21T00:13:40.757Z,133.46
2024-03-21T00:14:40.795Z,131.72
2024-03-21T00:15:40.842Z,132.50
2024-03-21T00:16:40.894Z,130.49
2024-03-21T00:17:40.946Z,131.05
2024-03-21T00:18:41.013Z,131.85
2024-03-21T00:19:41.048Z,131.32
2024-03-21T00:20:41.098Z,132.12
2024-03-21T00:21:41.268Z,131.90
2024-03-21T00:22:41.200Z,132.00
2024-03-21T00:23:41.263Z,132.96
2024-03-21T00:24:41.307Z,135.61
2024-03-21T00:25:41.369Z,134.61
2024-03-21T00:26:41.410Z,133.20
2024-03-21T00:27:41.465Z,135.08
2024-03-21T00:28:41.513Z,136.42
2024-03-21T00:29:41.562Z,136.00
2024-03-21T00:30:41.614Z,137.07
2024-03-21T00:31:41.662Z,136.12
2024-03-21T00:32:41.717Z,137.14
2024-03-21T00:33:41.791Z,137.75
2024-03-21T00:34:41.833Z,137.69
2024-03-21T00:35:41.877Z,136.85
2024-03-21T00:36:41.927Z,138.18
2024-03-21T00:37:41.978Z,137.27
2024-03-21T00:38:42.039Z,138.36
2024-03-21T00:39:42.092Z,140.12
2024-03-21T00:40:42.153Z,138.64
2024-03-21T00:41:42.206Z,139.21
2024-03-21T00:42:42.281Z,139.86
2024-03-21T00:43:42.339Z,138.87
2024-03-21T00:44:42.387Z,139.76
2024-03-21T00:45:42.452Z,138.99
2024-03-21T00:46:42.503Z,137.54
2024-03-21T00:47:42.562Z,136.91
2024-03-21T00:48:42.637Z,139.17
2024-03-21T00:49:42.674Z,136.16
2024-03-21T00:50:42.724Z,137.36
2024-03-21T00:51:42.777Z,137.76
2024-03-21T00:52:42.836Z,137.63
2024-03-21T00:53:42.908Z,138.86
2024-03-21T00:54:42.942Z,137.26
2024-03-21T00:55:42.996Z,135.30
2024-03-21T00:56:43.051Z,134.64
2024-03-21T00:57:43.118Z,132.75
2024-03-21T00:58:43.169Z,132.01
2024-03-21T00:59:43.206Z,133.54
2024-03-21T01:00:43.256Z,131.84
2024-03-21T01:01:43.333Z,129.16
2024-03-21T01:02:43.367Z,127.42
2024-03-21T01:03:43.432Z,126.54
2024-03-21T01:04:43.499Z,125.16
2024-03-21T01:05:43.523Z,124.38
2024-03-21T01:06:43.568Z,121.87
2024-03-21T01:07:43.624Z,123.97
2024-03-21T01:08:43.681Z,125.87
2024-03-21T01:09:43.726Z,122.66
2024-03-21T01:10:43.882Z,122.99
2024-03-21T01:11:43.831Z,122.03
2024-03-21T01:12:43.887Z,119.37
2024-03-21T01:13:43.952Z,121.73
2024-03-21T01:14:44.002Z,120.01
2024-03-21T01:15:44.047Z,119.39
2024-03-21T01:16:44.116Z,116.15
2024-03-21T01:17:44.169Z,115.56
2024-03-21T01:18:44.229Z,117.71
2024-03-21T01:19:44.325Z,118.77
2024-03-21T01:20:44.332Z,120.42
2024-03-21T01:21:44.391Z,120.56
2024-03-21T01:22:44.480Z,118.87
2024-03-21T01:23:44.499Z,120.41
2024-03-21T01:24:44.546Z,117.84
2024-03-21T01:25:44.624Z,116.49
2024-03-21T01:26:44.654Z,115.40
2024-03-21T01:27:44.711Z,118.58
2024-03-21T01:28:44.786Z,118.34
2024-03-21T01:29:44.830Z,117.46
2024-03-21T01:30:44.880Z,119.76
2024-03-21T01:31:44.964Z,119.13
2024-03-21T01:32:44.995Z,117.13
2024-03-21T01:33:45.052Z,119.62
2024-03-21T01:34:45.109Z,122.29
2024-03-21T01:35:45.154Z,119.59
2024-03-21T01:36:45.213Z,121.13
2024-03-21T01:37:45.277Z,121.09
2024-03-21T01:38:45.326Z,118.82
2024-03-21T01:39:45.375Z,121.08
2024-03-21T01:40:45.436Z,120.44
2024-03-21T01:41:45.477Z,120.22
2024-03-21T01:42:45.532Z,120.51
2024-03-21T01:43:45.621Z,120.02
2024-03-21T01:44:45.637Z,119.77
2024-03-21T01:45:45.697Z,118.95
2024-03-21T01:46:45.795Z,118.43
2024-03-21T01:47:45.826Z,117.21
2024-03-21T01:48:45.877Z,120.02
2024-03-21T01:49:45.912Z,118.24
2024-03-21T01:50:45.966Z,116.74
2024-03-21T01:51:46.036Z,117.04
2024-03-21T01:52:46.076Z,117.21
2024-03-21T01:53:46.132Z,116.25
2024-03-21T01:54:46.188Z,116.81
2024-03-21T01:55:46.288Z,117.55
2024-03-21T01:56:46.296Z,115.30
2024-03-21T01:57:46.342Z,114.46
2024-03-21T01:58:46.437Z,113.07
2024-03-21T01:59:46.468Z,116.33
2024-03-21T02:00:46.522Z,113.70
2024-03-21T02:01:46.597Z,113.79
2024-03-21T02:02:46.640Z,115.25
2024-03-21T02:03:46.702Z,113.38
2024-03-21T02:04:46.767Z,115.81
2024-03-21T02:05:46.804Z,113.80
2024-03-21T02:06:46.907Z,115.69
2024-03-21T02:07:46.970Z,116.87
2024-03-21T02:08:46.996Z,116.07
2024-03-21T02:09:47.043Z,114.94
2024-03-21T02:10:47.118Z,115.32
2024-03-21T02:11:47.160Z,116.34
2024-03-21T02:12:47.213Z,115.62
2024-03-21T02:13:47.299Z,115.54
2024-03-21T02:14:47.344Z,115.15
2024-03-21T02:15:47.412Z,117.08
2024-03-21T02:16:47.513Z,116.56
2024-03-21T02:17:47.520Z,116.14
2024-03-21T02:18:47.593Z,111.08
2024-03-21T02:19:47.640Z,112.21
2024-03-21T02:20:47.701Z,113.45
2024-03-21T02:21:47.759Z,114.15
2024-03-21T02:22:47.823Z,112.43
2024-03-21T02:23:47.880Z,113.02
2024-03-21T02:24:47.964Z,111.67
2024-03-21T02:25:48.005Z,113.17
2024-03-21T02:26:48.069Z,113.17
2024-03-21T02:27:48.135Z,111.13
2024-03-21T02:28:48.194Z,107.88
2024-03-21T02:29:48.250Z,110.57
2024-03-21T02:30:48.318Z,109.53
2024-03-21T02:31:48.395Z,105.57
2024-03-21T02:32:48.432Z,106.09
2024-03-21T02:33:48.501Z,106.04
2024-03-21T02:34:48.555Z,105.11
2024-03-21T02:35:48.617Z,102.52
2024-03-21T02:36:48.684Z,102.22
2024-03-21T02:37:48.761Z,99.50
2024-03-21T02:38:48.789Z,101.40
2024-03-21T02:39:48.843Z,102.74
2024-03-21T02:40:48.914Z,102.98
2024-03-21T02:41:48.961Z,101.98
2024-03-21T02:42:49.015Z,101.70
2024-03-21T02:43:49.084Z,98.14
2024-03-21T02:44:49.149Z,98.04
2024-03-21T02:45:49.209Z,100.69
2024-03-21T02:46:49.260Z,97.57
2024-03-21T02:47:49.339Z,101.39
2024-03-21T02:48:49.408Z,99.60
2024-03-21T02:49:49.434Z,100.84
2024-03-21T02:50:49.500Z,101.40
2024-03-21T02:51:49.551Z,101.41
2024-03-21T02:52:49.642Z,101.37
2024-03-21T02:53:49.671Z,100.60
2024-03-21T02:54:49.704Z,100.51
2024-03-21T02:55:49.808Z,101.81
2024-03-21T02:56:49.820Z,102.08
2024-03-21T02:57:49.875Z,103.86
2024-03-21T02:58:49.935Z,102.16
2024-03-21T02:59:49.996Z,104.67
2024-03-21T03:00:50.075Z,106.03
2024-03-21T03:01:50.115Z,106.07
2024-03-21T03:02:50.162Z,103.59
2024-03-21T03:03:50.225Z,107.46
2024-03-21T03:04:50.272Z,107.14
2024-03-21T03:05:50.328Z,105.03
2024-03-21T03:06:50.414Z,104.96
2024-03-21T03:07:50.449Z,107.65
2024-03-21T03:08:50.511Z,105.01
2024-03-21T03:09:50.570Z,105.81
2024-03-21T03:10:50.677Z,102.18
2024-03-21T03:11:50.686Z,103.86
2024-03-21T03:12:50.752Z,104.30
2024-03-21T03:13:50.810Z,105.69
2024-03-21T03:14:50.870Z,105.59
2024-03-21T03:15:50.922Z,103.08
2024-03-21T03:16:50.998Z,107.02
2024-03-21T03:17:51.051Z,106.84
2024-03-21T03:18:51.113Z,106.61
2024-03-21T03:19:51.177Z,106.83
2024-03-21T03:20:51.214Z,107.93
2024-03-21T03:21:51.271Z,104.80
2024-03-21T03:22:51.343Z,106.94
2024-03-21T03:23:51.395Z,107.33
2024-03-21T03:24:51.446Z,106.65
2024-03-21T03:25:51.519Z,106.65
2024-03-21T03:26:51.557Z,107.22
2024-03-21T03:27:51.616Z,106.66
2024-03-21T03:28:51.710Z,109.95
2024-03-21T03:29:51.736Z,106.53
2024-03-21T03:30:51.776Z,107.66
2024-03-21T03:31:51.853Z,110.09
2024-03-21T03:32:51.909Z,110.74
2024-03-21T03:33:51.966Z,109.66
2024-03-21T03:34:52.046Z,112.14
2024-03-21T03:35:52.091Z,110.58
2024-03-21T03:36:52.149Z,112.06
2024-03-21T03:37:52.201Z,111.30
2024-03-21T03:38:52.259Z,111.10
2024-03-21T03:39:52.322Z,113.60
2024-03-21T03:40:52.372Z,112.89
2024-03-21T03:41:52.421Z,111.81
2024-03-21T03:42:52.481Z,114.89
2024-03-21T03:43:52.540Z,112.97
2024-03-21T03:44:52.616Z,114.46
2024-03-21T03:45:52.668Z,114.70
2024-03-21T03:46:52.742Z,116.16
2024-03-21T03:47:52.786Z,115.60
2024-03-21T03:48:52.842Z,117.82
2024-03-21T03:49:52.967Z,115.21
2024-03-21T03:50:52.959Z,114.92
2024-03-21T03:51:53.027Z,113.12
2024-03-21T03:52:53.115Z,112.42
2024-03-21T03:53:53.140Z,111.61
2024-03-21T03:54:53.201Z,109.81
2024-03-21T03:55:53.260Z,106.66
2024-03-21T03:56:53.327Z,105.61
2024-03-21T03:57:53.385Z,106.96
2024-03-21T03:58:53.466Z,108.83
2024-03-21T03:59:54.460Z,108.69
2024-03-21T04:00:53.565Z,105.44
2024-03-21T04:01:53.660Z,107.54
2024-03-21T04:02:53.676Z,105.64
2024-03-21T04:03:53.747Z,108.05
2024-03-21T04:04:53.850Z,107.31
2024-03-21T04:05:53.854Z,107.70
2024-03-21T04:06:53.922Z,106.31
2024-03-21T04:07:54.056Z,102.99
2024-03-21T04:08:54.067Z,105.51
2024-03-21T04:09:54.101Z,106.34
2024-03-21T04:10:54.197Z,111.13
2024-03-21T04:11:54.215Z,108.38
2024-03-21T04:12:54.273Z,106.13
2024-03-21T04:13:54.346Z,104.74
2024-03-21T04:14:54.410Z,105.92
2024-03-21T04:15:54.454Z,107.37
2024-03-21T04:16:54.525Z,108.64
2024-03-21T04:17:54.582Z,108.64
2024-03-21T04:18:54.644Z,110.69
2024-03-21T04:19:54.726Z,110.24
2024-03-21T04:20:54.770Z,108.98
2024-03-21T04:21:54.822Z,110.96
2024-03-21T04:22:54.903Z,112.51
2024-03-21T04:23:54.954Z,115.81
2024-03-21T04:24:55.020Z,113.00
2024-03-21T04:25:55.117Z,115.35
2024-03-21T04:26:55.132Z,116.46
2024-03-21T04:27:55.188Z,119.07
2024-03-21T04:28:55.270Z,117.27
2024-03-21T04:29:55.325Z,115.34
2024-03-21T04:30:55.377Z,116.19
2024-03-21T04:31:55.462Z,114.61
2024-03-21T04:32:55.495Z,114.44
2024-03-21T04:33:55.551Z,113.85
2024-03-21T04:34:55.686Z,108.99
2024-03-21T04:35:55.679Z,109.12
2024-03-21T04:36:55.748Z,105.35
2024-03-21T04:37:55.829Z,101.94
2024-03-21T04:38:55.849Z,99.99
2024-03-21T04:39:55.982Z,100.01
2024-03-21T04:40:56.021Z,99.80
2024-03-21T04:41:56.055Z,103.37
2024-03-21T04:42:56.112Z,103.35
2024-03-21T04:43:56.210Z,106.08
2024-03-21T04:44:56.225Z,107.24
2024-03-21T04:45:56.287Z,106.44
2024-03-21T04:46:56.373Z,107.01
2024-03-21T04:47:57.968Z,108.79
2024-03-21T04:48:56.467Z,110.24
2024-03-21T04:49:56.565Z,111.34
2024-03-21T04:50:56.585Z,112.40
2024-03-21T04:51:56.635Z,112.46
2024-03-21T04:52:56.716Z,111.95
2024-03-21T04:54:04.037Z,50.00
2024-03-21T04:55:04.018Z,50.00
2024-03-21T04:56:04.011Z,50.00
2024-03-21T04:57:04.010Z,50.00
2024-03-21T04:58:04.020Z,50.00
2024-03-21T04:59:04.026Z,50.83
2024-03-21T05:00:04.021Z,52.04
2024-03-21T05:01:04.013Z,51.93
2024-03-21T05:02:04.020Z,51.76
2024-03-21T05:03:04.013Z,51.99
2024-03-21T05:04:04.035Z,51.03
2024-03-21T05:05:04.033Z,55.11
2024-03-21T05:06:04.027Z,56.33
2024-03-21T05:07:04.036Z,55.64
2024-03-21T05:08:04.027Z,58.40
2024-03-21T05:09:04.038Z,57.34
2024-03-21T05:10:04.038Z,57.57
2024-03-21T05:11:04.039Z,58.83
2024-03-21T05:12:04.045Z,59.11
2024-03-21T05:13:04.057Z,59.37
2024-03-21T05:14:04.045Z,57.24
2024-03-21T05:15:04.043Z,57.09
2024-03-21T05:16:04.044Z,53.85
2024-03-21T05:17:04.040Z,52.94
2024-03-21T05:18:04.134Z,54.90
2024-03-21T05:19:04.085Z,55.49
2024-03-21T05:20:04.061Z,55.09
2024-03-21T05:21:04.067Z,55.42
2024-03-21T05:22:04.073Z,56.92
2024-03-21T05:23:04.062Z,55.62
2024-03-21T05:24:04.075Z,53.50
2024-03-21T05:25:04.072Z,53.19
2024-03-21T05:26:04.100Z,52.65
2024-03-21T05:27:04.145Z,52.04
2024-03-21T05:28:04.179Z,51.57
2024-03-21T05:29:04.231Z,52.30
2024-03-21T05:30:04.254Z,52.76
2024-03-21T05:31:04.287Z,53.89
2024-03-21T05:32:04.320Z,52.55
2024-03-21T05:33:04.367Z,53.54
2024-03-21T05:34:04.416Z,54.64
2024-03-21T05:35:04.454Z,54.58
2024-03-21T05:36:04.491Z,55.23
2024-03-21T05:37:04.532Z,55.43
2024-03-21T05:38:04.572Z,54.77
2024-03-21T05:39:04.615Z,55.74
2024-03-21T05:40:04.662Z,57.99
2024-03-21T05:41:04.697Z,54.99
2024-03-21T05:42:04.730Z,54.29
2024-03-21T05:43:04.776Z,57.71
2024-03-21T05:44:04.821Z,58.61
2024-03-21T05:45:04.865Z,58.16
2024-03-21T05:46:04.909Z,54.73
2024-03-21T05:47:04.944Z,55.26
2024-03-21T05:48:04.988Z,53.24
2024-03-21T05:49:05.022Z,54.91
2024-03-21T05:50:05.082Z,55.82
2024-03-21T05:51:05.110Z,53.18
2024-03-21T05:52:05.145Z,56.27
2024-03-21T05:53:05.189Z,53.70
2024-03-21T05:54:05.227Z,53.41
2024-03-21T05:55:05.275Z,52.57
2024-03-21T05:56:05.316Z,52.84
2024-03-21T05:57:05.346Z,54.43
2024-03-21T05:58:05.388Z,54.21
2024-03-21T05:59:05.433Z,53.88
2024-03-21T06:00:05.464Z,55.38
2024-03-21T06:01:05.508Z,55.77
2024-03-21T06:02:05.547Z,55.71
2024-03-21T06:03:05.583Z,55.63
2024-03-21T06:04:05.620Z,56.02
2024-03-21T06:05:05.671Z,52.63
2024-03-21T06:06:05.715Z,55.64
2024-03-21T06:07:05.744Z,54.06
2024-03-21T06:08:05.782Z,54.57
2024-03-21T06:09:05.821Z,56.59
2024-03-21T06:10:05.866Z,58.36
2024-03-21T06:11:05.903Z,56.58
2024-03-21T06:12:05.945Z,57.28
2024-03-21T06:13:05.979Z,59.49
2024-03-21T06:14:06.011Z,59.92
2024-03-21T06:15:06.051Z,59.86
2024-03-21T06:16:06.085Z,59.52
2024-03-21T06:17:06.121Z,62.98
2024-03-21T06:18:06.163Z,65.01
2024-03-21T06:19:06.199Z,66.88
2024-03-21T06:20:06.653Z,66.79
2024-03-21T06:21:06.266Z,67.23
2024-03-21T06:22:06.296Z,70.79
2024-03-21T06:23:06.344Z,69.98
2024-03-21T06:24:06.392Z,72.11
2024-03-21T06:25:06.430Z,71.12
2024-03-21T06:26:06.456Z,72.05
2024-03-21T06:27:06.492Z,75.66
2024-03-21T06:28:06.523Z,74.03
2024-03-21T06:29:06.573Z,72.21
2024-03-21T06:30:06.652Z,70.33
2024-03-21T06:31:06.647Z,70.60
2024-03-21T06:32:06.702Z,73.29
2024-03-21T06:33:06.736Z,73.89
2024-03-21T06:34:06.764Z,70.45
2024-03-21T06:35:07.165Z,72.87
2024-03-21T06:36:06.849Z,76.27
2024-03-21T06:37:06.864Z,75.02
2024-03-21T06:38:06.890Z,76.41
2024-03-21T06:39:06.923Z,81.77
2024-03-21T06:40:07.159Z,83.62
2024-03-21T06:41:07.172Z,87.74
2024-03-21T06:42:07.000Z,89.30
2024-03-21T06:43:07.016Z,95.37
2024-03-21T06:44:07.048Z,100.22
2024-03-21T06:45:07.166Z,103.17
2024-03-21T06:46:07.089Z,105.90
2024-03-21T06:47:07.117Z,109.37
2024-03-21T06:48:07.132Z,113.86
2024-03-21T06:49:07.174Z,119.62
2024-03-21T06:50:07.201Z,121.60
2024-03-21T06:51:07.207Z,124.19
2024-03-21T06:52:07.251Z,128.32
2024-03-21T06:53:07.271Z,123.31
2024-03-21T06:54:07.285Z,123.02
2024-03-21T06:55:07.318Z,127.26
2024-03-21T06:56:07.366Z,130.04
2024-03-21T06:57:07.379Z,127.18
2024-03-21T06:58:07.389Z,128.61
2024-03-21T06:59:07.420Z,135.29
2024-03-21T07:00:07.436Z,161.93
2024-03-21T07:01:07.462Z,174.41
2024-03-21T07:02:07.509Z,167.83
2024-03-21T07:03:07.506Z,166.90
2024-03-21T07:04:07.538Z,162.39
2024-03-21T07:05:07.550Z,161.02
2024-03-21T07:06:07.573Z,164.57
2024-03-21T07:07:07.599Z,162.91
2024-03-21T07:08:07.619Z,160.75
2024-03-21T07:09:07.639Z,163.33
2024-03-21T07:10:07.668Z,162.81
2024-03-21T07:11:07.711Z,161.91
2024-03-21T07:12:07.700Z,159.26
2024-03-21T07:13:07.738Z,158.49
2024-03-21T07:14:07.757Z,156.02
2024-03-21T07:15:08.173Z,154.71
2024-03-21T07:16:07.816Z,153.70
2024-03-21T07:17:07.862Z,158.64
2024-03-21T07:18:07.869Z,160.81
2024-03-21T07:19:07.897Z,161.33
2024-03-21T07:20:07.953Z,169.12
2024-03-21T07:21:07.934Z,171.04
2024-03-21T07:22:07.957Z,174.95
2024-03-21T07:23:08.181Z,179.58
2024-03-21T07:24:08.008Z,186.81
2024-03-21T07:25:08.041Z,191.46
2024-03-21T07:26:08.111Z,197.80
2024-03-21T07:27:08.096Z,199.43
2024-03-21T07:28:08.181Z,200.00
2024-03-21T07:29:08.164Z,197.27
2024-03-21T07:30:08.692Z,194.50
2024-03-21T07:31:08.244Z,193.21
2024-03-21T07:32:08.285Z,186.10
2024-03-21T07:33:08.355Z,178.61
2024-03-21T07:34:08.413Z,170.99
2024-03-21T07:35:08.690Z,172.28
2024-03-21T07:36:08.472Z,174.21
2024-03-21T07:37:08.482Z,171.35
2024-03-21T07:38:08.506Z,168.16
2024-03-21T07:39:08.515Z,165.23
2024-03-21T07:40:08.685Z,162.36
2024-03-21T07:41:08.567Z,160.77
2024-03-21T07:42:08.540Z,162.24
2024-03-21T07:43:08.554Z,155.86
2024-03-21T07:44:08.615Z,159.52
2024-03-21T07:45:08.681Z,156.52
2024-03-21T07:46:08.750Z,157.27
2024-03-21T07:47:08.828Z,148.34
2024-03-21T07:48:08.900Z,154.49
2024-03-21T07:49:08.961Z,152.08
2024-03-21T07:50:09.615Z,145.08
2024-03-21T07:51:09.088Z,141.92
2024-03-21T07:52:09.149Z,139.30
2024-03-21T07:53:09.215Z,136.25
2024-03-21T07:54:09.280Z,135.30
2024-03-21T07:55:09.702Z,131.14
2024-03-21T07:56:09.412Z,131.30
2024-03-21T07:57:09.483Z,130.87
2024-03-21T07:58:09.511Z,130.71
2024-03-21T07:59:09.559Z,128.29
2024-03-21T08:00:09.615Z,129.10
2024-03-21T08:01:11.176Z,126.78
2024-03-21T08:02:09.715Z,124.22
2024-03-21T08:03:09.766Z,124.46
2024-03-21T08:04:09.818Z,124.28
2024-03-21T08:05:09.879Z,120.76
2024-03-21T08:06:09.993Z,119.31
2024-03-21T08:07:10.040Z,119.94
2024-03-21T08:08:10.054Z,117.70
2024-03-21T08:09:10.146Z,118.49
2024-03-21T08:10:10.296Z,120.30
2024-03-21T08:11:10.353Z,122.78
2024-03-21T08:12:10.294Z,121.51
2024-03-21T08:13:10.347Z,121.12
2024-03-21T08:14:10.415Z,122.60
2024-03-21T08:15:10.491Z,127.12
2024-03-21T08:16:10.634Z,131.87
2024-03-21T08:17:10.710Z,133.45
2024-03-21T08:18:10.697Z,136.57
2024-03-21T08:19:10.751Z,140.05
2024-03-21T08:20:10.811Z,142.71
2024-03-21T08:21:12.878Z,145.21
2024-03-21T08:22:10.884Z,145.37
2024-03-21T08:23:10.903Z,145.94
2024-03-21T08:24:10.897Z,148.04
2024-03-21T08:25:11.709Z,151.88
2024-03-21T08:26:10.911Z,153.68
2024-03-21T08:27:10.920Z,155.97
2024-03-21T08:28:10.903Z,158.48
2024-03-21T08:29:10.909Z,165.46
2024-03-21T08:30:11.025Z,170.67
2024-03-21T08:31:10.911Z,177.95
2024-03-21T08:32:10.949Z,183.96
2024-03-21T08:33:10.905Z,192.11
2024-03-21T08:34:10.896Z,196.84
2024-03-21T08:35:11.223Z,199.81
2024-03-21T08:36:10.906Z,197.69
2024-03-21T08:37:10.914Z,200.00
2024-03-21T08:38:10.915Z,200.00
2024-03-21T08:39:10.914Z,200.00
2024-03-21T08:40:11.209Z,198.82
2024-03-21T08:41:10.922Z,199.94
2024-03-21T08:42:10.930Z,199.01
2024-03-21T08:43:10.913Z,200.25
2024-03-21T08:44:11.222Z,200.64
2024-03-21T08:45:10.912Z,200.00
2024-03-21T08:46:10.914Z,200.00
2024-03-21T08:47:10.915Z,199.57
2024-03-21T08:48:10.915Z,200.00
2024-03-21T08:49:11.216Z,198.68
2024-03-21T08:50:10.932Z,199.37
2024-03-21T08:51:10.931Z,200.00
2024-03-21T08:52:10.922Z,200.00
2024-03-21T08:53:10.940Z,199.39
2024-03-21T08:54:10.928Z,199.53
2024-03-21T08:55:10.925Z,198.75
2024-03-21T08:56:10.919Z,199.86
2024-03-21T08:57:10.931Z,200.00
2024-03-21T08:58:10.979Z,199.23
2024-03-21T08:59:11.039Z,199.28
2024-03-21T09:00:11.103Z,200.00
2024-03-21T09:01:11.171Z,199.84
2024-03-21T09:02:11.280Z,199.18
2024-03-21T09:03:11.312Z,199.11
2024-03-21T09:04:11.365Z,198.97
2024-03-21T09:05:11.505Z,200.00
2024-03-21T09:06:11.567Z,199.34
2024-03-21T09:07:11.573Z,200.00
2024-03-21T09:08:11.634Z,199.69
2024-03-21T09:09:11.704Z,198.89
2024-03-21T09:10:11.767Z,199.33
2024-03-21T09:11:11.869Z,199.92
2024-03-21T09:12:11.895Z,200.00
2024-03-21T09:13:11.962Z,199.07
2024-03-21T09:14:12.041Z,198.40
2024-03-21T09:15:12.172Z,199.53
2024-03-21T09:16:12.206Z,199.07
2024-03-21T09:17:12.228Z,199.66
2024-03-21T09:18:12.284Z,198.18
2024-03-21T09:19:12.349Z,198.23
2024-03-21T09:20:12.774Z,197.88
2024-03-21T09:21:12.478Z,195.49
2024-03-21T09:22:12.548Z,195.09
2024-03-21T09:23:12.718Z,192.18
2024-03-21T09:24:12.707Z,187.31
2024-03-21T09:25:13.282Z,182.54
2024-03-21T09:26:12.786Z,177.91
2024-03-21T09:27:15.432Z,177.20
2024-03-21T09:28:13.780Z,173.11
2024-03-21T09:29:12.782Z,171.40
2024-03-21T09:30:12.794Z,169.22
2024-03-21T09:31:12.800Z,168.10
2024-03-21T09:32:12.792Z,167.68
2024-03-21T09:33:12.791Z,167.05
2024-03-21T09:34:12.835Z,164.92
2024-03-21T09:35:12.802Z,164.24
2024-03-21T09:36:12.798Z,163.33
2024-03-21T09:37:12.914Z,163.82
2024-03-21T09:38:12.798Z,165.82
2024-03-21T09:39:12.821Z,166.59
2024-03-21T09:40:12.806Z,167.30
2024-03-21T09:41:12.806Z,168.90
2024-03-21T09:42:12.802Z,169.29
2024-03-21T09:43:12.817Z,172.95
2024-03-21T09:44:12.810Z,172.50
2024-03-21T09:45:12.887Z,175.25
2024-03-21T09:46:12.954Z,178.52
2024-03-21T09:47:13.044Z,180.89
2024-03-21T09:48:13.076Z,181.51
2024-03-21T09:49:13.229Z,183.66
2024-03-21T09:50:13.218Z,186.05
2024-03-21T09:51:13.322Z,188.98
2024-03-21T09:52:13.326Z,191.54
2024-03-21T09:53:13.383Z,193.78
2024-03-21T09:54:13.439Z,196.31
2024-03-21T09:55:13.486Z,197.96
2024-03-21T09:56:13.566Z,199.83
2024-03-21T09:57:13.580Z,199.95
2024-03-21T09:58:13.651Z,200.00
2024-03-21T09:59:13.771Z,198.52
2024-03-21T10:00:13.756Z,200.18
2024-03-21T10:01:13.769Z,200.00
2024-03-21T10:02:13.808Z,199.63
2024-03-21T10:03:13.856Z,199.92
2024-03-21T10:04:13.940Z,198.82
2024-03-21T10:05:13.951Z,198.58
2024-03-21T10:06:14.068Z,199.25
2024-03-21T10:07:14.032Z,200.00
2024-03-21T10:08:14.066Z,199.88
2024-03-21T10:09:14.102Z,199.62
2024-03-21T10:10:14.163Z,199.86
2024-03-21T10:11:14.286Z,198.88
2024-03-21T10:12:14.204Z,199.83
2024-03-21T10:13:14.279Z,198.66
2024-03-21T10:14:14.386Z,200.00
2024-03-21T10:15:14.857Z,199.70
2024-03-21T10:16:14.352Z,197.66
2024-03-21T10:17:15.664Z,200.00
2024-03-21T10:18:14.414Z,199.85
2024-03-21T10:19:14.447Z,199.11
2024-03-21T10:20:14.480Z,198.76
2024-03-21T10:21:14.499Z,199.68
2024-03-21T10:22:14.530Z,197.85
2024-03-21T10:23:14.550Z,197.00
2024-03-21T10:24:14.571Z,195.38
2024-03-21T10:25:14.765Z,197.00
2024-03-21T10:26:14.630Z,194.70
2024-03-21T10:27:14.654Z,194.82
2024-03-21T10:28:14.681Z,196.10
2024-03-21T10:29:14.728Z,196.32
2024-03-21T10:30:14.859Z,198.26
2024-03-21T10:31:14.745Z,197.82
2024-03-21T10:32:14.788Z,196.90
2024-03-21T10:33:14.801Z,196.91
2024-03-21T10:34:14.824Z,197.82
2024-03-21T10:35:19.193Z,198.05
2024-03-21T10:36:15.869Z,198.13
2024-03-21T10:37:14.866Z,198.55
2024-03-21T10:38:14.866Z,199.62
2024-03-21T10:39:14.872Z,201.27
2024-03-21T10:40:14.869Z,205.33
2024-03-21T10:41:14.869Z,200.00
2024-03-21T10:42:14.879Z,198.94
2024-03-21T10:43:14.877Z,200.13
2024-03-21T10:44:14.875Z,199.36
2024-03-21T10:45:14.874Z,198.86
2024-03-21T10:46:14.920Z,199.02
2024-03-21T10:47:14.876Z,199.03
2024-03-21T10:48:14.876Z,199.22
2024-03-21T10:49:14.880Z,199.32
2024-03-21T10:50:15.285Z,197.38
2024-03-21T10:51:14.893Z,197.96
2024-03-21T10:52:14.897Z,198.00
2024-03-21T10:53:14.885Z,195.64
2024-03-21T10:54:14.897Z,194.81
2024-03-21T10:55:14.881Z,193.46
2024-03-21T10:56:14.880Z,195.22
2024-03-21T10:57:14.881Z,195.41
2024-03-21T10:58:14.889Z,196.28
2024-03-21T10:59:14.887Z,197.67
2024-03-21T11:00:14.887Z,199.77
2024-03-21T11:01:14.898Z,198.21
2024-03-21T11:02:14.926Z,197.64
2024-03-21T11:03:14.919Z,199.78
2024-03-21T11:04:14.891Z,199.30
2024-03-21T11:05:14.909Z,199.45
2024-03-21T11:06:16.330Z,199.83
2024-03-21T11:07:14.918Z,200.00
2024-03-21T11:08:14.942Z,198.93
2024-03-21T11:09:14.937Z,200.00
2024-03-21T11:10:15.007Z,199.07
2024-03-21T11:11:14.979Z,200.09
2024-03-21T11:12:15.091Z,199.26
2024-03-21T11:13:15.001Z,199.41
2024-03-21T11:14:15.056Z,198.77
2024-03-21T11:15:15.036Z,199.64
2024-03-21T11:16:15.043Z,199.05
2024-03-21T11:17:15.102Z,200.00
2024-03-21T11:18:15.115Z,199.68
2024-03-21T11:19:15.134Z,200.00
2024-03-21T11:20:15.482Z,198.18
2024-03-21T11:21:15.189Z,197.96
2024-03-21T11:22:15.324Z,196.64
2024-03-21T11:23:15.191Z,196.29
2024-03-21T11:24:15.231Z,190.05
2024-03-21T11:25:15.320Z,183.13
2024-03-21T11:26:15.267Z,173.64
2024-03-21T11:27:15.322Z,169.11
2024-03-21T11:28:15.383Z,164.30
2024-03-21T11:29:19.326Z,160.21
2024-03-21T11:30:16.377Z,158.14
2024-03-21T11:31:15.447Z,155.50
2024-03-21T11:32:15.459Z,153.17
2024-03-21T11:33:16.250Z,152.12
2024-03-21T11:34:15.467Z,152.39
2024-03-21T11:35:15.472Z,152.39
2024-03-21T11:36:15.479Z,149.71
2024-03-21T11:37:15.819Z,149.81
2024-03-21T11:38:15.467Z,149.89
2024-03-21T11:39:15.480Z,151.67
2024-03-21T11:40:15.483Z,152.64
2024-03-21T11:41:15.475Z,152.77
2024-03-21T11:42:15.507Z,153.61
2024-03-21T11:43:15.473Z,154.54
2024-03-21T11:44:15.471Z,154.62
2024-03-21T11:45:15.493Z,154.38
2024-03-21T11:46:15.515Z,155.97
2024-03-21T11:47:15.511Z,156.04
2024-03-21T11:48:16.664Z,157.07
2024-03-21T11:49:15.495Z,158.29
2024-03-21T11:50:15.493Z,157.98
2024-03-21T11:51:15.485Z,160.25
2024-03-21T11:52:15.504Z,159.91
2024-03-21T11:53:15.528Z,161.59
2024-03-21T11:54:15.547Z,162.13
2024-03-21T11:55:15.580Z,160.94
2024-03-21T11:56:15.595Z,160.61
2024-03-21T11:57:15.624Z,161.36
2024-03-21T11:58:15.646Z,162.48
2024-03-21T11:59:15.656Z,162.91
2024-03-21T12:00:15.696Z,164.55
2024-03-21T12:01:15.720Z,166.84
2024-03-21T12:02:15.732Z,167.37
2024-03-21T12:03:15.782Z,167.43
2024-03-21T12:04:15.767Z,168.11
2024-03-21T12:05:15.804Z,167.04
2024-03-21T12:06:15.893Z,167.17
2024-03-21T12:07:15.799Z,167.02
2024-03-21T12:08:15.889Z,166.74
2024-03-21T12:09:15.854Z,166.76
2024-03-21T12:10:16.336Z,166.82
2024-03-21T12:11:15.941Z,167.16
2024-03-21T12:12:15.918Z,167.50
2024-03-21T12:13:16.322Z,167.07
2024-03-21T12:14:15.990Z,168.05
2024-03-21T12:15:15.915Z,166.40
2024-03-21T12:16:15.932Z,166.77
2024-03-21T12:17:15.964Z,164.93
2024-03-21T12:18:16.350Z,165.97
2024-03-21T12:19:15.998Z,165.94
2024-03-21T12:20:16.013Z,165.05
2024-03-21T12:21:16.036Z,167.27
2024-03-21T12:22:16.163Z,165.57
2024-03-21T12:23:16.344Z,166.68
2024-03-21T12:24:16.113Z,165.46
2024-03-21T12:25:16.254Z,164.89
2024-03-21T12:26:16.187Z,162.54
2024-03-21T12:27:16.170Z,160.30
2024-03-21T12:28:16.190Z,158.62
2024-03-21T12:29:16.254Z,156.32
2024-03-21T12:30:16.240Z,154.01
2024-03-21T12:31:16.258Z,151.86
2024-03-21T12:32:16.286Z,150.23
2024-03-21T12:33:16.302Z,147.94